sensor_id;sensor_type;location;lat;lon;timestamp;P1;durP1;ratioP1;P2;durP2;ratioP2
19207;SDS011;9737;59.466;18.036;2023-03-14T00:01:55;7.78;;;2.63;;
19207;SDS011;9737;59.466;18.036;2023-03-14T00:04:24;14.20;;;2.63;;
19207;SDS011;9737;59.466;18.036;2023-03-14T00:06:52;9.27;;;2.65;;
19207;SDS011;9737;59.466;18.036;2023-03-14T00:09:20;11.18;;;2.45;;
19207;SDS011;9737;59.466;18.036;2023-03-14T00:11:48;10.77;;;3.20;;
19207;SDS011;9737;59.466;18.036;2023-03-14T00:14:15;5.65;;;2.38;;
19207;SDS011;9737;59.466;18.036;2023-03-14T00:16:45;3.55;;;2.10;;
19207;SDS011;9737;59.466;18.036;2023-03-14T00:19:13;10.32;;;2.90;;
19207;SDS011;9737;59.466;18.036;2023-03-14T00:21:42;6.18;;;2.60;;
19207;SDS011;9737;59.466;18.036;2023-03-14T00:24:10;11.07;;;2.60;;
19207;SDS011;9737;59.466;18.036;2023-03-14T00:26:38;6.05;;;2.20;;
19207;SDS011;9737;59.466;18.036;2023-03-14T00:29:06;6.05;;;2.40;;
19207;SDS011;9737;59.466;18.036;2023-03-14T00:31:33;8.70;;;2.42;;
19207;SDS011;9737;59.466;18.036;2023-03-14T00:34:02;10.07;;;2.50;;
19207;SDS011;9737;59.466;18.036;2023-03-14T00:36:30;5.93;;;2.30;;
19207;SDS011;9737;59.466;18.036;2023-03-14T00:38:59;9.10;;;2.33;;
19207;SDS011;9737;59.466;18.036;2023-03-14T00:41:27;10.13;;;2.50;;
19207;SDS011;9737;59.466;18.036;2023-03-14T00:43:55;7.82;;;2.58;;
19207;SDS011;9737;59.466;18.036;2023-03-14T00:46:22;8.70;;;2.80;;
19207;SDS011;9737;59.466;18.036;2023-03-14T00:48:50;8.88;;;2.50;;
19207;SDS011;9737;59.466;18.036;2023-03-14T00:51:19;6.32;;;2.20;;
19207;SDS011;9737;59.466;18.036;2023-03-14T00:53:47;13.00;;;2.78;;
19207;SDS011;9737;59.466;18.036;2023-03-14T00:56:16;8.15;;;2.58;;
19207;SDS011;9737;59.466;18.036;2023-03-14T00:58:44;7.90;;;2.80;;
19207;SDS011;9737;59.466;18.036;2023-03-14T01:01:13;5.35;;;2.35;;
19207;SDS011;9737;59.466;18.036;2023-03-14T01:03:43;6.45;;;2.72;;
19207;SDS011;9737;59.466;18.036;2023-03-14T01:06:11;7.13;;;2.42;;
19207;SDS011;9737;59.466;18.036;2023-03-14T01:08:40;6.72;;;2.33;;
19207;SDS011;9737;59.466;18.036;2023-03-14T01:11:09;5.25;;;2.33;;
19207;SDS011;9737;59.466;18.036;2023-03-14T01:13:40;7.07;;;2.42;;
19207;SDS011;9737;59.466;18.036;2023-03-14T01:16:09;8.25;;;2.50;;
19207;SDS011;9737;59.466;18.036;2023-03-14T01:18:40;8.20;;;2.42;;
19207;SDS011;9737;59.466;18.036;2023-03-14T01:21:11;11.80;;;2.67;;
19207;SDS011;9737;59.466;18.036;2023-03-14T01:23:40;5.93;;;2.28;;
19207;SDS011;9737;59.466;18.036;2023-03-14T01:26:09;4.72;;;2.65;;
19207;SDS011;9737;59.466;18.036;2023-03-14T01:28:38;7.22;;;2.45;;
19207;SDS011;9737;59.466;18.036;2023-03-14T01:31:08;4.00;;;2.20;;
19207;SDS011;9737;59.466;18.036;2023-03-14T01:33:37;6.60;;;2.50;;
19207;SDS011;9737;59.466;18.036;2023-03-14T01:36:06;6.55;;;2.38;;
19207;SDS011;9737;59.466;18.036;2023-03-14T01:38:35;8.43;;;2.40;;
19207;SDS011;9737;59.466;18.036;2023-03-14T01:41:05;7.97;;;2.53;;
19207;SDS011;9737;59.466;18.036;2023-03-14T01:43:34;6.55;;;2.38;;
19207;SDS011;9737;59.466;18.036;2023-03-14T01:48:50;6.50;;;2.33;;
19207;SDS011;9737;59.466;18.036;2023-03-14T01:51:24;5.50;;;2.42;;
19207;SDS011;9737;59.466;18.036;2023-03-14T01:53:54;5.35;;;2.00;;
19207;SDS011;9737;59.466;18.036;2023-03-14T01:56:29;5.18;;;2.40;;
19207;SDS011;9737;59.466;18.036;2023-03-14T01:58:58;9.55;;;2.28;;
19207;SDS011;9737;59.466;18.036;2023-03-14T02:01:29;6.25;;;2.15;;
19207;SDS011;9737;59.466;18.036;2023-03-14T02:03:58;7.70;;;2.40;;
19207;SDS011;9737;59.466;18.036;2023-03-14T02:06:29;5.60;;;2.88;;
19207;SDS011;9737;59.466;18.036;2023-03-14T02:09:02;2.97;;;1.95;;
19207;SDS011;9737;59.466;18.036;2023-03-14T02:11:31;4.63;;;2.05;;
19207;SDS011;9737;59.466;18.036;2023-03-14T02:13:58;4.32;;;1.75;;
19207;SDS011;9737;59.466;18.036;2023-03-14T02:16:27;3.17;;;1.85;;
19207;SDS011;9737;59.466;18.036;2023-03-14T02:18:56;3.97;;;1.88;;
19207;SDS011;9737;59.466;18.036;2023-03-14T02:21:26;6.88;;;1.90;;
19207;SDS011;9737;59.466;18.036;2023-03-14T02:24:07;3.38;;;1.92;;
19207;SDS011;9737;59.466;18.036;2023-03-14T02:26:41;9.45;;;1.83;;
19207;SDS011;9737;59.466;18.036;2023-03-14T02:29:14;7.22;;;2.17;;
19207;SDS011;9737;59.466;18.036;2023-03-14T02:31:42;5.60;;;1.80;;
19207;SDS011;9737;59.466;18.036;2023-03-14T02:34:19;4.18;;;1.80;;
19207;SDS011;9737;59.466;18.036;2023-03-14T02:36:47;8.38;;;1.80;;
19207;SDS011;9737;59.466;18.036;2023-03-14T02:39:15;4.38;;;1.75;;
19207;SDS011;9737;59.466;18.036;2023-03-14T02:41:49;3.63;;;2.00;;
19207;SDS011;9737;59.466;18.036;2023-03-14T02:44:18;3.92;;;2.25;;
19207;SDS011;9737;59.466;18.036;2023-03-14T02:46:46;4.57;;;1.80;;
19207;SDS011;9737;59.466;18.036;2023-03-14T02:49:14;4.93;;;1.67;;
19207;SDS011;9737;59.466;18.036;2023-03-14T02:51:43;2.17;;;1.60;;
19207;SDS011;9737;59.466;18.036;2023-03-14T02:54:12;3.88;;;1.85;;
19207;SDS011;9737;59.466;18.036;2023-03-14T02:56:41;4.85;;;1.45;;
19207;SDS011;9737;59.466;18.036;2023-03-14T02:59:09;4.43;;;1.77;;
19207;SDS011;9737;59.466;18.036;2023-03-14T03:01:38;6.22;;;1.70;;
19207;SDS011;9737;59.466;18.036;2023-03-14T03:04:06;5.80;;;1.83;;
19207;SDS011;9737;59.466;18.036;2023-03-14T03:06:34;6.18;;;1.92;;
19207;SDS011;9737;59.466;18.036;2023-03-14T03:09:02;2.38;;;1.70;;
19207;SDS011;9737;59.466;18.036;2023-03-14T03:11:30;3.05;;;1.65;;
19207;SDS011;9737;59.466;18.036;2023-03-14T03:13:59;4.43;;;2.00;;
19207;SDS011;9737;59.466;18.036;2023-03-14T03:16:27;6.80;;;1.88;;
19207;SDS011;9737;59.466;18.036;2023-03-14T03:18:56;3.70;;;1.67;;
19207;SDS011;9737;59.466;18.036;2023-03-14T03:21:24;6.65;;;2.00;;
19207;SDS011;9737;59.466;18.036;2023-03-14T03:23:52;4.53;;;1.70;;
19207;SDS011;9737;59.466;18.036;2023-03-14T03:26:20;1.77;;;1.42;;
19207;SDS011;9737;59.466;18.036;2023-03-14T03:28:49;3.40;;;1.73;;
19207;SDS011;9737;59.466;18.036;2023-03-14T03:31:17;4.50;;;1.88;;
19207;SDS011;9737;59.466;18.036;2023-03-14T03:33:45;3.95;;;1.50;;
19207;SDS011;9737;59.466;18.036;2023-03-14T03:36:15;3.78;;;1.50;;
19207;SDS011;9737;59.466;18.036;2023-03-14T03:38:42;3.47;;;1.58;;
19207;SDS011;9737;59.466;18.036;2023-03-14T03:41:10;3.13;;;1.50;;
19207;SDS011;9737;59.466;18.036;2023-03-14T03:43:38;4.10;;;1.80;;
19207;SDS011;9737;59.466;18.036;2023-03-14T03:46:07;5.38;;;1.60;;
19207;SDS011;9737;59.466;18.036;2023-03-14T03:48:35;4.22;;;1.67;;
19207;SDS011;9737;59.466;18.036;2023-03-14T03:51:03;5.70;;;1.73;;
19207;SDS011;9737;59.466;18.036;2023-03-14T03:53:33;1.90;;;1.60;;
19207;SDS011;9737;59.466;18.036;2023-03-14T03:56:01;5.38;;;1.80;;
19207;SDS011;9737;59.466;18.036;2023-03-14T03:58:29;3.83;;;1.83;;
19207;SDS011;9737;59.466;18.036;2023-03-14T04:00:57;3.53;;;1.77;;
19207;SDS011;9737;59.466;18.036;2023-03-14T04:03:25;2.40;;;1.65;;
19207;SDS011;9737;59.466;18.036;2023-03-14T04:05:59;6.28;;;1.75;;
19207;SDS011;9737;59.466;18.036;2023-03-14T04:08:29;4.13;;;1.73;;
19207;SDS011;9737;59.466;18.036;2023-03-14T04:10:59;6.70;;;1.88;;
19207;SDS011;9737;59.466;18.036;2023-03-14T04:13:28;4.05;;;1.70;;
19207;SDS011;9737;59.466;18.036;2023-03-14T04:15:56;9.82;;;1.77;;
19207;SDS011;9737;59.466;18.036;2023-03-14T04:18:24;3.85;;;1.80;;
19207;SDS011;9737;59.466;18.036;2023-03-14T04:20:53;3.80;;;2.10;;
19207;SDS011;9737;59.466;18.036;2023-03-14T04:23:22;5.47;;;1.83;;
19207;SDS011;9737;59.466;18.036;2023-03-14T04:25:51;5.70;;;1.85;;
19207;SDS011;9737;59.466;18.036;2023-03-14T04:28:21;7.68;;;1.73;;
19207;SDS011;9737;59.466;18.036;2023-03-14T04:30:48;11.27;;;3.38;;
19207;SDS011;9737;59.466;18.036;2023-03-14T04:33:16;9.73;;;2.30;;
19207;SDS011;9737;59.466;18.036;2023-03-14T04:35:44;9.10;;;2.05;;
19207;SDS011;9737;59.466;18.036;2023-03-14T04:38:13;4.95;;;2.00;;
19207;SDS011;9737;59.466;18.036;2023-03-14T04:40:41;9.57;;;2.47;;
19207;SDS011;9737;59.466;18.036;2023-03-14T04:43:09;8.68;;;1.98;;
19207;SDS011;9737;59.466;18.036;2023-03-14T04:45:42;8.32;;;2.15;;
19207;SDS011;9737;59.466;18.036;2023-03-14T04:48:12;5.38;;;2.28;;
19207;SDS011;9737;59.466;18.036;2023-03-14T04:50:40;5.22;;;2.00;;
19207;SDS011;9737;59.466;18.036;2023-03-14T04:53:07;3.35;;;1.90;;
19207;SDS011;9737;59.466;18.036;2023-03-14T04:55:35;4.95;;;1.92;;
19207;SDS011;9737;59.466;18.036;2023-03-14T04:58:03;2.20;;;1.67;;
19207;SDS011;9737;59.466;18.036;2023-03-14T05:00:31;6.00;;;2.13;;
19207;SDS011;9737;59.466;18.036;2023-03-14T05:03:01;7.43;;;2.10;;
19207;SDS011;9737;59.466;18.036;2023-03-14T05:05:29;8.13;;;1.88;;
19207;SDS011;9737;59.466;18.036;2023-03-14T05:07:56;7.85;;;2.30;;
19207;SDS011;9737;59.466;18.036;2023-03-14T05:10:24;3.83;;;2.22;;
19207;SDS011;9737;59.466;18.036;2023-03-14T05:12:52;7.18;;;2.35;;
19207;SDS011;9737;59.466;18.036;2023-03-14T05:15:20;5.60;;;1.77;;
19207;SDS011;9737;59.466;18.036;2023-03-14T05:17:48;3.72;;;2.90;;
19207;SDS011;9737;59.466;18.036;2023-03-14T05:20:17;3.72;;;1.73;;
19207;SDS011;9737;59.466;18.036;2023-03-14T05:22:45;4.25;;;2.22;;
19207;SDS011;9737;59.466;18.036;2023-03-14T05:25:14;3.70;;;1.80;;
19207;SDS011;9737;59.466;18.036;2023-03-14T05:27:42;8.88;;;2.25;;
19207;SDS011;9737;59.466;18.036;2023-03-14T05:30:10;5.88;;;2.55;;
19207;SDS011;9737;59.466;18.036;2023-03-14T05:32:38;6.55;;;2.00;;
19207;SDS011;9737;59.466;18.036;2023-03-14T05:35:06;7.97;;;2.20;;
19207;SDS011;9737;59.466;18.036;2023-03-14T05:37:36;5.32;;;1.98;;
19207;SDS011;9737;59.466;18.036;2023-03-14T05:40:04;7.72;;;2.05;;
19207;SDS011;9737;59.466;18.036;2023-03-14T05:42:34;7.38;;;2.10;;
19207;SDS011;9737;59.466;18.036;2023-03-14T05:45:03;9.07;;;2.13;;
19207;SDS011;9737;59.466;18.036;2023-03-14T05:47:31;5.82;;;2.25;;
19207;SDS011;9737;59.466;18.036;2023-03-14T05:49:59;7.75;;;2.10;;
19207;SDS011;9737;59.466;18.036;2023-03-14T05:52:26;4.47;;;1.90;;
19207;SDS011;9737;59.466;18.036;2023-03-14T05:54:56;5.68;;;2.60;;
19207;SDS011;9737;59.466;18.036;2023-03-14T05:57:23;8.95;;;2.22;;
19207;SDS011;9737;59.466;18.036;2023-03-14T05:59:51;4.80;;;2.03;;
19207;SDS011;9737;59.466;18.036;2023-03-14T06:02:19;9.50;;;1.95;;
19207;SDS011;9737;59.466;18.036;2023-03-14T06:04:47;6.32;;;2.13;;
19207;SDS011;9737;59.466;18.036;2023-03-14T06:07:15;5.97;;;1.90;;
19207;SDS011;9737;59.466;18.036;2023-03-14T06:09:43;3.58;;;2.05;;
19207;SDS011;9737;59.466;18.036;2023-03-14T06:12:12;6.15;;;1.90;;
19207;SDS011;9737;59.466;18.036;2023-03-14T06:14:40;8.27;;;2.00;;
19207;SDS011;9737;59.466;18.036;2023-03-14T06:17:08;6.90;;;1.80;;
19207;SDS011;9737;59.466;18.036;2023-03-14T06:19:36;9.65;;;1.85;;
19207;SDS011;9737;59.466;18.036;2023-03-14T06:22:04;6.22;;;2.05;;
19207;SDS011;9737;59.466;18.036;2023-03-14T06:24:31;4.53;;;1.73;;
19207;SDS011;9737;59.466;18.036;2023-03-14T06:26:59;7.90;;;1.90;;
19207;SDS011;9737;59.466;18.036;2023-03-14T06:29:30;7.63;;;1.88;;
19207;SDS011;9737;59.466;18.036;2023-03-14T06:31:58;9.52;;;1.92;;
19207;SDS011;9737;59.466;18.036;2023-03-14T06:34:26;8.32;;;1.77;;
19207;SDS011;9737;59.466;18.036;2023-03-14T06:36:54;5.32;;;1.60;;
19207;SDS011;9737;59.466;18.036;2023-03-14T06:39:21;5.50;;;1.70;;
19207;SDS011;9737;59.466;18.036;2023-03-14T06:41:49;5.75;;;1.77;;
19207;SDS011;9737;59.466;18.036;2023-03-14T06:44:17;5.53;;;1.50;;
19207;SDS011;9737;59.466;18.036;2023-03-14T06:46:46;4.93;;;1.65;;
19207;SDS011;9737;59.466;18.036;2023-03-14T06:49:14;3.15;;;1.60;;
19207;SDS011;9737;59.466;18.036;2023-03-14T06:51:42;6.00;;;1.80;;
19207;SDS011;9737;59.466;18.036;2023-03-14T06:54:10;2.97;;;1.58;;
19207;SDS011;9737;59.466;18.036;2023-03-14T06:56:38;6.10;;;1.42;;
19207;SDS011;9737;59.466;18.036;2023-03-14T06:59:06;6.53;;;1.65;;
19207;SDS011;9737;59.466;18.036;2023-03-14T07:01:34;7.30;;;1.55;;
19207;SDS011;9737;59.466;18.036;2023-03-14T07:04:03;2.15;;;1.45;;
19207;SDS011;9737;59.466;18.036;2023-03-14T07:06:32;3.88;;;1.85;;
19207;SDS011;9737;59.466;18.036;2023-03-14T07:09:00;3.58;;;1.50;;
19207;SDS011;9737;59.466;18.036;2023-03-14T07:11:29;2.90;;;1.60;;
19207;SDS011;9737;59.466;18.036;2023-03-14T07:13:57;3.63;;;1.33;;
19207;SDS011;9737;59.466;18.036;2023-03-14T07:16:25;3.13;;;1.40;;
19207;SDS011;9737;59.466;18.036;2023-03-14T07:18:55;4.00;;;1.48;;
19207;SDS011;9737;59.466;18.036;2023-03-14T07:21:24;4.10;;;1.80;;
19207;SDS011;9737;59.466;18.036;2023-03-14T07:23:53;4.45;;;1.90;;
19207;SDS011;9737;59.466;18.036;2023-03-14T07:26:21;7.65;;;2.05;;
19207;SDS011;9737;59.466;18.036;2023-03-14T07:28:49;3.65;;;1.52;;
19207;SDS011;9737;59.466;18.036;2023-03-14T07:31:17;3.90;;;1.50;;
19207;SDS011;9737;59.466;18.036;2023-03-14T07:33:45;2.85;;;1.30;;
19207;SDS011;9737;59.466;18.036;2023-03-14T07:36:13;2.25;;;1.30;;
19207;SDS011;9737;59.466;18.036;2023-03-14T07:38:42;1.33;;;1.20;;
19207;SDS011;9737;59.466;18.036;2023-03-14T07:41:10;2.97;;;1.17;;
19207;SDS011;9737;59.466;18.036;2023-03-14T07:43:38;1.35;;;1.30;;
19207;SDS011;9737;59.466;18.036;2023-03-14T07:46:06;1.25;;;1.10;;
19207;SDS011;9737;59.466;18.036;2023-03-14T07:48:35;1.50;;;1.10;;
19207;SDS011;9737;59.466;18.036;2023-03-14T07:51:03;1.25;;;1.20;;
19207;SDS011;9737;59.466;18.036;2023-03-14T07:53:31;1.33;;;1.23;;
19207;SDS011;9737;59.466;18.036;2023-03-14T07:56:01;2.03;;;1.40;;
19207;SDS011;9737;59.466;18.036;2023-03-14T07:58:28;2.70;;;1.20;;
19207;SDS011;9737;59.466;18.036;2023-03-14T08:00:58;1.30;;;1.20;;
19207;SDS011;9737;59.466;18.036;2023-03-14T08:03:26;1.13;;;1.13;;
19207;SDS011;9737;59.466;18.036;2023-03-14T08:05:54;1.20;;;1.10;;
19207;SDS011;9737;59.466;18.036;2023-03-14T08:08:22;2.33;;;1.17;;
19207;SDS011;9737;59.466;18.036;2023-03-14T08:10:50;1.10;;;1.10;;
19207;SDS011;9737;59.466;18.036;2023-03-14T08:13:19;1.80;;;1.20;;
19207;SDS011;9737;59.466;18.036;2023-03-14T08:15:47;1.08;;;1.08;;
19207;SDS011;9737;59.466;18.036;2023-03-14T08:18:17;1.17;;;1.17;;
19207;SDS011;9737;59.466;18.036;2023-03-14T08:20:45;1.30;;;1.20;;
19207;SDS011;9737;59.466;18.036;2023-03-14T08:23:13;1.35;;;1.10;;
19207;SDS011;9737;59.466;18.036;2023-03-14T08:25:40;1.38;;;1.27;;
19207;SDS011;9737;59.466;18.036;2023-03-14T08:28:08;1.30;;;1.20;;
19207;SDS011;9737;59.466;18.036;2023-03-14T08:30:38;1.17;;;1.08;;
19207;SDS011;9737;59.466;18.036;2023-03-14T08:33:05;1.42;;;1.33;;
19207;SDS011;9737;59.466;18.036;2023-03-14T08:35:33;1.13;;;1.05;;
19207;SDS011;9737;59.466;18.036;2023-03-14T08:38:01;1.00;;;1.00;;
19207;SDS011;9737;59.466;18.036;2023-03-14T08:40:29;1.17;;;1.10;;
19207;SDS011;9737;59.466;18.036;2023-03-14T08:42:57;1.10;;;1.00;;
19207;SDS011;9737;59.466;18.036;2023-03-14T08:45:25;1.20;;;1.10;;
19207;SDS011;9737;59.466;18.036;2023-03-14T08:47:54;0.80;;;0.80;;
19207;SDS011;9737;59.466;18.036;2023-03-14T08:50:22;0.90;;;0.90;;
19207;SDS011;9737;59.466;18.036;2023-03-14T08:52:50;1.10;;;1.00;;
19207;SDS011;9737;59.466;18.036;2023-03-14T08:55:18;0.75;;;0.75;;
19207;SDS011;9737;59.466;18.036;2023-03-14T08:57:46;0.80;;;0.80;;
19207;SDS011;9737;59.466;18.036;2023-03-14T09:00:14;0.80;;;0.80;;
19207;SDS011;9737;59.466;18.036;2023-03-14T09:02:43;0.82;;;0.82;;
19207;SDS011;9737;59.466;18.036;2023-03-14T09:05:12;0.80;;;0.80;;
19207;SDS011;9737;59.466;18.036;2023-03-14T09:07:40;0.90;;;0.90;;
19207;SDS011;9737;59.466;18.036;2023-03-14T09:10:09;1.00;;;0.90;;
19207;SDS011;9737;59.466;18.036;2023-03-14T09:12:37;0.90;;;0.90;;
19207;SDS011;9737;59.466;18.036;2023-03-14T09:15:06;1.20;;;0.90;;
19207;SDS011;9737;59.466;18.036;2023-03-14T09:17:34;0.82;;;0.82;;
19207;SDS011;9737;59.466;18.036;2023-03-14T09:20:02;0.90;;;0.90;;
19207;SDS011;9737;59.466;18.036;2023-03-14T09:22:35;1.00;;;0.90;;
19207;SDS011;9737;59.466;18.036;2023-03-14T09:25:02;0.80;;;0.80;;
19207;SDS011;9737;59.466;18.036;2023-03-14T09:27:30;1.10;;;1.10;;
19207;SDS011;9737;59.466;18.036;2023-03-14T09:29:58;0.85;;;0.85;;
19207;SDS011;9737;59.466;18.036;2023-03-14T09:32:26;1.05;;;1.02;;
19207;SDS011;9737;59.466;18.036;2023-03-14T09:34:54;0.93;;;0.93;;
19207;SDS011;9737;59.466;18.036;2023-03-14T09:37:22;2.90;;;1.40;;
19207;SDS011;9737;59.466;18.036;2023-03-14T09:39:51;1.13;;;1.02;;
19207;SDS011;9737;59.466;18.036;2023-03-14T09:42:20;1.40;;;1.05;;
19207;SDS011;9737;59.466;18.036;2023-03-14T09:44:53;1.02;;;1.02;;
19207;SDS011;9737;59.466;18.036;2023-03-14T09:47:23;1.00;;;1.00;;
19207;SDS011;9737;59.466;18.036;2023-03-14T09:49:53;1.00;;;1.00;;
19207;SDS011;9737;59.466;18.036;2023-03-14T09:52:22;1.08;;;0.98;;
19207;SDS011;9737;59.466;18.036;2023-03-14T09:54:56;0.90;;;0.90;;
19207;SDS011;9737;59.466;18.036;2023-03-14T09:57:28;1.10;;;1.00;;
19207;SDS011;9737;59.466;18.036;2023-03-14T09:59:56;0.80;;;0.80;;
19207;SDS011;9737;59.466;18.036;2023-03-14T10:02:33;0.70;;;0.70;;
19207;SDS011;9737;59.466;18.036;2023-03-14T10:05:04;0.90;;;0.90;;
19207;SDS011;9737;59.466;18.036;2023-03-14T10:07:40;1.58;;;0.90;;
19207;SDS011;9737;59.466;18.036;2023-03-14T10:10:11;0.85;;;0.85;;
19207;SDS011;9737;59.466;18.036;2023-03-14T10:12:45;0.90;;;0.90;;
19207;SDS011;9737;59.466;18.036;2023-03-14T10:15:14;0.90;;;0.90;;
19207;SDS011;9737;59.466;18.036;2023-03-14T10:17:50;1.63;;;0.80;;
19207;SDS011;9737;59.466;18.036;2023-03-14T10:20:26;0.90;;;0.90;;
19207;SDS011;9737;59.466;18.036;2023-03-14T10:23:00;0.90;;;0.90;;
19207;SDS011;9737;59.466;18.036;2023-03-14T10:25:32;0.88;;;0.88;;
19207;SDS011;9737;59.466;18.036;2023-03-14T10:28:02;1.08;;;1.00;;
19207;SDS011;9737;59.466;18.036;2023-03-14T10:30:33;0.90;;;0.90;;
19207;SDS011;9737;59.466;18.036;2023-03-14T10:33:11;0.90;;;0.90;;
19207;SDS011;9737;59.466;18.036;2023-03-14T10:35:52;1.05;;;0.88;;
19207;SDS011;9737;59.466;18.036;2023-03-14T10:38:22;0.90;;;0.90;;
19207;SDS011;9737;59.466;18.036;2023-03-14T10:40:53;0.80;;;0.80;;
19207;SDS011;9737;59.466;18.036;2023-03-14T10:43:25;1.13;;;1.02;;
19207;SDS011;9737;59.466;18.036;2023-03-14T10:45:55;1.33;;;1.00;;
19207;SDS011;9737;59.466;18.036;2023-03-14T10:48:29;1.50;;;0.90;;
19207;SDS011;9737;59.466;18.036;2023-03-14T10:51:03;1.08;;;1.02;;
19207;SDS011;9737;59.466;18.036;2023-03-14T10:53:33;0.90;;;0.90;;
19207;SDS011;9737;59.466;18.036;2023-03-14T10:56:09;1.25;;;0.98;;
19207;SDS011;9737;59.466;18.036;2023-03-14T10:58:40;0.98;;;0.98;;
19207;SDS011;9737;59.466;18.036;2023-03-14T11:01:14;0.93;;;0.93;;
19207;SDS011;9737;59.466;18.036;2023-03-14T11:03:54;0.90;;;0.90;;
19207;SDS011;9737;59.466;18.036;2023-03-14T11:06:26;1.13;;;0.98;;
19207;SDS011;9737;59.466;18.036;2023-03-14T11:09:02;1.15;;;0.95;;
19207;SDS011;9737;59.466;18.036;2023-03-14T11:11:37;1.10;;;1.00;;
19207;SDS011;9737;59.466;18.036;2023-03-14T11:14:13;1.10;;;1.00;;
19207;SDS011;9737;59.466;18.036;2023-03-14T11:16:53;1.00;;;1.00;;
19207;SDS011;9737;59.466;18.036;2023-03-14T11:19:36;0.95;;;0.95;;
19207;SDS011;9737;59.466;18.036;2023-03-14T11:22:13;1.60;;;1.10;;
19207;SDS011;9737;59.466;18.036;2023-03-14T11:24:51;1.30;;;1.20;;
19207;SDS011;9737;59.466;18.036;2023-03-14T11:27:28;0.90;;;0.90;;
19207;SDS011;9737;59.466;18.036;2023-03-14T11:30:03;1.10;;;1.00;;
19207;SDS011;9737;59.466;18.036;2023-03-14T11:32:43;1.10;;;1.00;;
19207;SDS011;9737;59.466;18.036;2023-03-14T11:35:16;1.25;;;1.10;;
19207;SDS011;9737;59.466;18.036;2023-03-14T11:37:47;1.00;;;1.00;;
19207;SDS011;9737;59.466;18.036;2023-03-14T11:40:21;1.92;;;1.50;;
19207;SDS011;9737;59.466;18.036;2023-03-14T11:42:54;3.33;;;1.30;;
19207;SDS011;9737;59.466;18.036;2023-03-14T11:45:29;1.42;;;1.20;;
19207;SDS011;9737;59.466;18.036;2023-03-14T11:50:48;1.00;;;1.00;;
19207;SDS011;9737;59.466;18.036;2023-03-14T11:53:21;4.22;;;1.10;;
19207;SDS011;9737;59.466;18.036;2023-03-14T11:55:53;1.38;;;1.10;;
19207;SDS011;9737;59.466;18.036;2023-03-14T11:58:24;1.20;;;1.10;;
19207;SDS011;9737;59.466;18.036;2023-03-14T12:00:55;1.30;;;1.20;;
19207;SDS011;9737;59.466;18.036;2023-03-14T12:03:26;1.40;;;1.30;;
19207;SDS011;9737;59.466;18.036;2023-03-14T12:06:01;1.23;;;1.13;;
19207;SDS011;9737;59.466;18.036;2023-03-14T12:08:46;1.25;;;1.20;;
19207;SDS011;9737;59.466;18.036;2023-03-14T12:11:18;1.38;;;1.27;;
19207;SDS011;9737;59.466;18.036;2023-03-14T12:13:52;1.40;;;1.30;;
19207;SDS011;9737;59.466;18.036;2023-03-14T12:16:27;1.20;;;1.10;;
19207;SDS011;9737;59.466;18.036;2023-03-14T12:21:53;1.48;;;1.38;;
19207;SDS011;9737;59.466;18.036;2023-03-14T12:24:24;2.65;;;1.30;;
19207;SDS011;9737;59.466;18.036;2023-03-14T12:26:58;1.98;;;1.33;;
19207;SDS011;9737;59.466;18.036;2023-03-14T12:29:29;1.50;;;1.40;;
19207;SDS011;9737;59.466;18.036;2023-03-14T12:32:07;1.30;;;1.20;;
19207;SDS011;9737;59.466;18.036;2023-03-14T12:34:47;1.40;;;1.30;;
19207;SDS011;9737;59.466;18.036;2023-03-14T12:37:26;2.97;;;1.10;;
19207;SDS011;9737;59.466;18.036;2023-03-14T12:40:03;1.30;;;1.20;;
19207;SDS011;9737;59.466;18.036;2023-03-14T12:42:43;1.52;;;1.30;;
19207;SDS011;9737;59.466;18.036;2023-03-14T12:45:24;2.03;;;1.30;;
19207;SDS011;9737;59.466;18.036;2023-03-14T12:47:55;1.40;;;1.30;;
19207;SDS011;9737;59.466;18.036;2023-03-14T12:50:32;1.20;;;1.17;;
19207;SDS011;9737;59.466;18.036;2023-03-14T12:53:15;1.40;;;1.30;;
19207;SDS011;9737;59.466;18.036;2023-03-14T12:56:06;1.30;;;1.20;;
19207;SDS011;9737;59.466;18.036;2023-03-14T12:58:47;1.60;;;1.40;;
19207;SDS011;9737;59.466;18.036;2023-03-14T13:01:25;1.30;;;1.20;;
19207;SDS011;9737;59.466;18.036;2023-03-14T13:03:54;1.33;;;1.23;;
19207;SDS011;9737;59.466;18.036;2023-03-14T13:09:36;1.63;;;1.40;;
19207;SDS011;9737;59.466;18.036;2023-03-14T13:12:22;1.55;;;1.20;;
19207;SDS011;9737;59.466;18.036;2023-03-14T13:14:54;1.17;;;1.10;;
19207;SDS011;9737;59.466;18.036;2023-03-14T13:17:26;1.10;;;1.10;;
19207;SDS011;9737;59.466;18.036;2023-03-14T13:20:03;1.42;;;1.25;;
19207;SDS011;9737;59.466;18.036;2023-03-14T13:22:38;3.20;;;1.38;;
19207;SDS011;9737;59.466;18.036;2023-03-14T13:25:12;1.08;;;1.08;;
19207;SDS011;9737;59.466;18.036;2023-03-14T13:27:40;1.38;;;1.27;;
19207;SDS011;9737;59.466;18.036;2023-03-14T13:30:16;1.20;;;1.10;;
19207;SDS011;9737;59.466;18.036;2023-03-14T13:32:48;1.42;;;1.33;;
19207;SDS011;9737;59.466;18.036;2023-03-14T13:35:18;1.50;;;1.40;;
19207;SDS011;9737;59.466;18.036;2023-03-14T13:37:52;1.50;;;1.40;;
19207;SDS011;9737;59.466;18.036;2023-03-14T13:40:36;1.60;;;1.50;;
19207;SDS011;9737;59.466;18.036;2023-03-14T13:43:05;1.52;;;1.42;;
19207;SDS011;9737;59.466;18.036;2023-03-14T13:45:47;1.48;;;1.38;;
19207;SDS011;9737;59.466;18.036;2023-03-14T13:48:19;3.38;;;1.60;;
19207;SDS011;9737;59.466;18.036;2023-03-14T13:50:53;1.65;;;1.55;;
19207;SDS011;9737;59.466;18.036;2023-03-14T13:53:22;1.90;;;1.77;;
19207;SDS011;9737;59.466;18.036;2023-03-14T13:55:51;4.70;;;1.70;;
19207;SDS011;9737;59.466;18.036;2023-03-14T13:58:20;4.10;;;1.90;;
19207;SDS011;9737;59.466;18.036;2023-03-14T14:00:54;4.43;;;2.13;;
19207;SDS011;9737;59.466;18.036;2023-03-14T14:03:27;4.32;;;2.60;;
19207;SDS011;9737;59.466;18.036;2023-03-14T14:05:57;3.97;;;2.17;;
19207;SDS011;9737;59.466;18.036;2023-03-14T14:08:25;2.80;;;2.30;;
19207;SDS011;9737;59.466;18.036;2023-03-14T14:10:55;2.97;;;1.95;;
19207;SDS011;9737;59.466;18.036;2023-03-14T14:13:29;2.05;;;1.85;;
19207;SDS011;9737;59.466;18.036;2023-03-14T14:16:00;3.08;;;1.60;;
19207;SDS011;9737;59.466;18.036;2023-03-14T14:18:31;3.63;;;1.70;;
19207;SDS011;9737;59.466;18.036;2023-03-14T14:21:00;5.30;;;1.90;;
19207;SDS011;9737;59.466;18.036;2023-03-14T14:23:28;3.50;;;2.08;;
19207;SDS011;9737;59.466;18.036;2023-03-14T14:25:58;6.10;;;1.70;;
19207;SDS011;9737;59.466;18.036;2023-03-14T14:28:27;1.70;;;1.60;;
19207;SDS011;9737;59.466;18.036;2023-03-14T14:31:00;5.53;;;2.00;;
19207;SDS011;9737;59.466;18.036;2023-03-14T14:33:41;2.25;;;1.90;;
19207;SDS011;9737;59.466;18.036;2023-03-14T14:36:18;6.28;;;1.90;;
19207;SDS011;9737;59.466;18.036;2023-03-14T14:38:49;4.40;;;1.67;;
19207;SDS011;9737;59.466;18.036;2023-03-14T14:41:19;3.42;;;1.80;;
19207;SDS011;9737;59.466;18.036;2023-03-14T14:43:47;2.50;;;2.00;;
19207;SDS011;9737;59.466;18.036;2023-03-14T14:46:17;2.17;;;1.98;;
19207;SDS011;9737;59.466;18.036;2023-03-14T14:48:48;2.35;;;2.15;;
19207;SDS011;9737;59.466;18.036;2023-03-14T14:51:25;2.72;;;2.05;;
19207;SDS011;9737;59.466;18.036;2023-03-14T14:54:01;5.43;;;2.00;;
19207;SDS011;9737;59.466;18.036;2023-03-14T14:56:34;2.33;;;2.00;;
19207;SDS011;9737;59.466;18.036;2023-03-14T14:59:03;2.63;;;2.15;;
19207;SDS011;9737;59.466;18.036;2023-03-14T15:01:34;2.30;;;2.10;;
19207;SDS011;9737;59.466;18.036;2023-03-14T15:04:09;2.20;;;1.90;;
19207;SDS011;9737;59.466;18.036;2023-03-14T15:06:41;2.20;;;1.80;;
19207;SDS011;9737;59.466;18.036;2023-03-14T15:09:11;2.45;;;2.00;;
19207;SDS011;9737;59.466;18.036;2023-03-14T15:11:38;2.75;;;2.10;;
19207;SDS011;9737;59.466;18.036;2023-03-14T15:14:06;2.30;;;2.10;;
19207;SDS011;9737;59.466;18.036;2023-03-14T15:16:34;6.63;;;2.20;;
19207;SDS011;9737;59.466;18.036;2023-03-14T15:19:03;3.45;;;2.08;;